createdAt,value
2018-05-27T00:00:32.012Z,0
2018-05-27T00:01:33.664Z,0
2018-05-27T00:02:35.339Z,0
2018-05-27T00:03:37.036Z,0
2018-05-27T00:04:38.702Z,0
2018-05-27T00:05:40.378Z,0
2018-05-27T00:06:42.038Z,0
2018-05-27T00:07:43.700Z,0
2018-05-27T00:08:45.354Z,0
2018-05-27T00:09:47.048Z,0
2018-05-27T00:10:48.704Z,0
2018-05-27T00:11:50.360Z,0
2018-05-27T00:12:52.039Z,0
2018-05-27T00:13:53.751Z,0
2018-05-27T00:14:55.361Z,0
2018-05-27T00:15:57.022Z,0
2018-05-27T00:16:58.690Z,0
2018-05-27T00:18:00.365Z,0
2018-05-27T00:19:02.018Z,0
2018-05-27T00:20:03.683Z,0
2018-05-27T00:21:05.355Z,0
2018-05-27T00:22:07.017Z,0
2018-05-27T00:23:08.694Z,0
2018-05-27T00:24:10.370Z,0
2018-05-27T00:25:12.047Z,0
2018-05-27T00:26:13.697Z,0
2018-05-27T00:27:15.383Z,0
2018-05-27T00:28:17.049Z,0
2018-05-27T00:29:18.709Z,0
2018-05-27T00:30:20.376Z,0
2018-05-27T00:31:22.038Z,0
2018-05-27T00:32:23.716Z,0
2018-05-27T00:33:25.383Z,0
2018-05-27T00:34:27.038Z,0
2018-05-27T00:35:28.706Z,0
2018-05-27T00:36:30.365Z,0
2018-05-27T00:37:32.023Z,0
2018-05-27T00:38:33.695Z,0
2018-05-27T00:39:35.352Z,0
2018-05-27T00:40:37.033Z,0
2018-05-27T00:41:38.686Z,0
2018-05-27T00:42:40.353Z,0
2018-05-27T00:43:42.005Z,0
2018-05-27T00:44:43.667Z,0
2018-05-27T00:45:45.325Z,0
2018-05-27T00:46:47.006Z,0
2018-05-27T00:47:48.679Z,0
2018-05-27T00:48:50.339Z,0
2018-05-27T00:49:52.054Z,0
2018-05-27T00:50:53.693Z,0
2018-05-27T00:51:55.385Z,0
2018-05-27T00:52:57.082Z,0
2018-05-27T00:53:58.768Z,0
2018-05-27T00:55:00.428Z,0
2018-05-27T00:56:02.095Z,0
2018-05-27T00:57:03.952Z,0
2018-05-27T00:58:05.615Z,0
2018-05-27T00:59:07.281Z,0
2018-05-27T01:00:08.948Z,0
2018-05-27T01:01:10.649Z,0
2018-05-27T01:02:12.353Z,0
2018-05-27T01:03:14.012Z,0
2018-05-27T01:04:15.666Z,0
2018-05-27T01:05:17.329Z,0
2018-05-27T01:06:18.986Z,0
2018-05-27T01:07:20.657Z,0
2018-05-27T01:08:22.319Z,0
2018-05-27T01:09:23.999Z,0
2018-05-27T01:10:25.708Z,0
2018-05-27T01:11:27.370Z,0
2018-05-27T01:12:29.020Z,0
2018-05-27T01:13:30.701Z,0
2018-05-27T01:14:32.342Z,0
2018-05-27T01:15:33.998Z,0
2018-05-27T01:16:35.664Z,0
2018-05-27T01:17:37.330Z,0
2018-05-27T01:18:38.990Z,0
2018-05-27T01:19:40.650Z,0
2018-05-27T01:20:42.314Z,0
2018-05-27T01:21:43.959Z,0
2018-05-27T01:22:45.642Z,0
2018-05-27T01:23:47.326Z,0
2018-05-27T01:24:48.978Z,0
2018-05-27T01:25:50.666Z,0
2018-05-27T01:26:52.328Z,0
2018-05-27T01:27:53.984Z,0
2018-05-27T01:28:55.645Z,0
2018-05-27T01:29:57.311Z,0
2018-05-27T01:30:58.972Z,0
2018-05-27T01:32:00.696Z,0
2018-05-27T01:33:02.342Z,0
2018-05-27T01:34:04.023Z,0
2018-05-27T01:35:05.696Z,0
2018-05-27T01:36:07.380Z,0
2018-05-27T01:37:09.043Z,0
2018-05-27T01:38:10.713Z,0
2018-05-27T01:39:12.393Z,0
2018-05-27T01:40:14.047Z,0
2018-05-27T01:41:15.710Z,0
2018-05-27T01:42:17.377Z,0
2018-05-27T01:43:19.030Z,0
2018-05-27T01:44:20.695Z,0
2018-05-27T01:45:22.363Z,0
2018-05-27T01:46:24.031Z,0
2018-05-27T01:47:25.686Z,0
2018-05-27T01:48:27.410Z,0
2018-05-27T01:49:29.060Z,0
2018-05-27T01:50:30.713Z,0
2018-05-27T01:51:32.379Z,0
2018-05-27T01:52:34.034Z,0
2018-05-27T01:53:35.715Z,0
2018-05-27T01:54:37.420Z,0
2018-05-27T01:55:39.076Z,0
2018-05-27T02:01:39.985Z,0
2018-05-27T02:02:41.645Z,0
2018-05-27T02:03:43.298Z,0
2018-05-27T02:04:44.989Z,0
2018-05-27T02:05:46.674Z,0
2018-05-27T02:06:48.332Z,0
2018-05-27T02:07:49.984Z,0
2018-05-27T02:08:51.649Z,0
2018-05-27T02:09:53.305Z,0
2018-05-27T02:10:54.965Z,0
2018-05-27T02:11:56.630Z,0
2018-05-27T02:12:58.292Z,0
2018-05-27T02:13:59.933Z,0
2018-05-27T02:15:01.601Z,0
2018-05-27T02:16:03.254Z,0
2018-05-27T02:17:04.909Z,0
2018-05-27T02:18:06.603Z,0
2018-05-27T02:19:08.253Z,0
2018-05-27T02:20:09.911Z,0
2018-05-27T02:21:11.569Z,0
2018-05-27T02:22:13.230Z,0
2018-05-27T02:23:14.920Z,0
2018-05-27T02:24:16.596Z,0
2018-05-27T02:25:18.264Z,0
2018-05-27T02:26:19.953Z,0
2018-05-27T02:27:21.627Z,0
2018-05-27T02:28:23.289Z,0
2018-05-27T02:29:24.950Z,0
2018-05-27T02:30:26.633Z,0
2018-05-27T02:31:28.322Z,0
2018-05-27T02:32:30.018Z,0
2018-05-27T02:33:31.689Z,0
2018-05-27T02:34:33.386Z,0
2018-05-27T02:35:35.046Z,0
2018-05-27T02:36:36.771Z,0
2018-05-27T02:37:38.435Z,0
2018-05-27T02:38:40.090Z,0
2018-05-27T02:39:41.750Z,0
2018-05-27T02:40:43.407Z,0
2018-05-27T02:41:45.064Z,0
2018-05-27T02:42:46.726Z,0
2018-05-27T02:43:48.397Z,0
2018-05-27T02:44:50.101Z,0
2018-05-27T02:45:51.777Z,0
2018-05-27T02:46:53.424Z,0
2018-05-27T02:47:55.089Z,0
2018-05-27T02:48:56.778Z,0
2018-05-27T02:49:58.435Z,0
2018-05-27T02:51:00.141Z,0
2018-05-27T02:52:01.818Z,0
2018-05-27T02:53:03.475Z,0
2018-05-27T02:54:05.147Z,0
2018-05-27T02:55:06.809Z,0
2018-05-27T02:56:08.475Z,0
2018-05-27T02:57:10.148Z,0
2018-05-27T02:58:11.820Z,0
2018-05-27T02:59:13.488Z,0
2018-05-27T03:00:15.156Z,0
2018-05-27T03:01:16.829Z,0
2018-05-27T03:02:18.477Z,0
2018-05-27T03:03:20.156Z,0
2018-05-27T03:04:21.829Z,0
2018-05-27T03:05:23.492Z,0
2018-05-27T03:06:25.166Z,0
2018-05-27T03:07:26.821Z,0
2018-05-27T03:08:28.503Z,5
2018-05-27T03:09:30.150Z,5
2018-05-27T03:10:31.808Z,5
2018-05-27T03:11:33.488Z,5
2018-05-27T03:12:35.219Z,5
2018-05-27T03:13:36.930Z,5
2018-05-27T03:14:38.608Z,10
2018-05-27T03:15:40.278Z,10
2018-05-27T03:16:41.999Z,10
2018-05-27T03:17:43.668Z,10
2018-05-27T03:18:45.323Z,15
2018-05-27T03:19:46.986Z,15
2018-05-27T03:20:48.674Z,15
2018-05-27T03:21:50.336Z,15
2018-05-27T03:22:51.999Z,15
2018-05-27T03:23:53.663Z,20
2018-05-27T03:24:55.340Z,20
2018-05-27T03:25:57.035Z,20
2018-05-27T03:26:58.691Z,20
2018-05-27T03:28:00.412Z,25
2018-05-27T03:29:02.086Z,25
2018-05-27T03:30:03.768Z,25
2018-05-27T03:31:05.438Z,30
2018-05-27T03:32:07.089Z,30
2018-05-27T03:33:08.794Z,30
2018-05-27T03:34:10.463Z,35
2018-05-27T03:35:12.149Z,35
2018-05-27T03:36:13.823Z,35
2018-05-27T03:37:15.559Z,40
2018-05-27T03:38:17.341Z,40
2018-05-27T03:39:19.125Z,40
2018-05-27T03:40:20.973Z,45
2018-05-27T03:41:22.750Z,45
2018-05-27T03:42:24.562Z,45
2018-05-27T03:43:26.355Z,50
2018-05-27T03:44:28.058Z,50
2018-05-27T03:45:29.809Z,55
2018-05-27T03:46:31.581Z,55
2018-05-27T03:47:33.396Z,60
2018-05-27T03:48:35.178Z,60
2018-05-27T03:49:36.924Z,65
2018-05-27T03:50:38.708Z,65
2018-05-27T03:51:40.522Z,65
2018-05-27T03:52:42.310Z,70
2018-05-27T03:53:44.095Z,70
2018-05-27T03:54:45.863Z,75
2018-05-27T03:55:47.666Z,75
2018-05-27T03:56:49.461Z,80
2018-05-27T03:57:51.414Z,80
2018-05-27T03:58:53.124Z,80
2018-05-27T03:59:54.930Z,85
2018-05-27T04:00:56.667Z,85
2018-05-27T04:01:58.406Z,90
2018-05-27T04:03:00.152Z,90
2018-05-27T04:04:01.870Z,90
2018-05-27T04:05:03.652Z,95
2018-05-27T04:06:05.809Z,95
2018-05-27T04:07:07.659Z,100
2018-05-27T04:08:09.501Z,100
2018-05-27T04:09:11.278Z,100
2018-05-27T04:10:13.012Z,105
2018-05-27T04:11:14.751Z,105
2018-05-27T04:12:16.566Z,110
2018-05-27T04:13:18.317Z,110
2018-05-27T04:14:20.072Z,115
2018-05-27T04:15:21.905Z,120
2018-05-27T04:16:23.695Z,120
2018-05-27T04:17:25.463Z,125
2018-05-27T04:18:27.283Z,125
2018-05-27T04:19:29.038Z,130
2018-05-27T04:20:30.863Z,130
2018-05-27T04:21:32.946Z,135
2018-05-27T04:22:34.720Z,140
2018-05-27T04:23:36.516Z,140
2018-05-27T04:24:38.340Z,145
2018-05-27T04:25:40.138Z,150
2018-05-27T04:26:41.963Z,150
2018-05-27T04:27:43.763Z,155
2018-05-27T04:28:45.485Z,160
2018-05-27T04:29:47.256Z,160
2018-05-27T04:30:49.013Z,165
2018-05-27T04:31:50.822Z,165
2018-05-27T04:32:52.569Z,170
2018-05-27T04:33:54.334Z,175
2018-05-27T04:34:56.149Z,185
2018-05-27T04:35:57.870Z,195
2018-05-27T04:36:59.642Z,200
2018-05-27T04:38:01.396Z,205
2018-05-27T04:39:03.220Z,210
2018-05-27T04:40:05.027Z,210
2018-05-27T04:41:06.796Z,215
2018-05-27T04:42:08.478Z,220
2018-05-27T04:43:10.233Z,220
2018-05-27T04:44:11.996Z,225
2018-05-27T04:45:13.724Z,230
2018-05-27T04:46:15.526Z,235
2018-05-27T04:47:17.301Z,240
2018-05-27T04:48:19.070Z,245
2018-05-27T04:49:20.839Z,250
2018-05-27T04:50:22.620Z,255
2018-05-27T04:51:24.428Z,260
2018-05-27T04:52:26.223Z,260
2018-05-27T04:53:27.974Z,265
2018-05-27T04:54:29.740Z,270
2018-05-27T04:55:31.564Z,270
2018-05-27T04:56:33.295Z,275
2018-05-27T04:57:35.059Z,280
2018-05-27T04:58:36.843Z,280
2018-05-27T04:59:38.576Z,285
2018-05-27T05:00:40.359Z,290
2018-05-27T05:01:42.112Z,290
2018-05-27T05:02:43.908Z,290
2018-05-27T05:03:45.650Z,270
2018-05-27T05:04:47.415Z,275
2018-05-27T05:05:49.189Z,300
2018-05-27T05:06:50.939Z,310
2018-05-27T05:07:52.629Z,315
2018-05-27T05:08:54.362Z,315
2018-05-27T05:09:56.101Z,320
2018-05-27T05:10:57.858Z,320
2018-05-27T05:11:59.614Z,325
2018-05-27T05:13:01.371Z,330
2018-05-27T05:14:03.109Z,330
2018-05-27T05:15:04.851Z,335
2018-05-27T05:16:06.624Z,335
2018-05-27T05:17:08.340Z,340
2018-05-27T05:18:10.096Z,345
2018-05-27T05:19:11.885Z,345
2018-05-27T05:20:13.654Z,350
2018-05-27T05:21:15.418Z,355
2018-05-27T05:22:17.239Z,360
2018-05-27T05:23:18.946Z,365
2018-05-27T05:24:20.734Z,370
2018-05-27T05:25:22.490Z,370
2018-05-27T05:26:24.308Z,375
2018-05-27T05:27:26.121Z,380
2018-05-27T05:28:27.895Z,385
2018-05-27T05:29:29.672Z,395
2018-05-27T05:30:31.461Z,400
2018-05-27T05:31:33.210Z,410
2018-05-27T05:32:34.941Z,420
2018-05-27T05:33:36.697Z,430
2018-05-27T05:34:38.416Z,420
2018-05-27T05:35:40.099Z,405
2018-05-27T05:36:41.816Z,415
2018-05-27T05:37:43.567Z,435
2018-05-27T05:38:45.347Z,450
2018-05-27T05:39:47.139Z,475
2018-05-27T05:40:48.879Z,485
2018-05-27T05:41:50.615Z,470
2018-05-27T05:42:52.354Z,485
2018-05-27T05:43:54.092Z,480
2018-05-27T05:44:55.877Z,460
2018-05-27T05:45:57.626Z,405
2018-05-27T05:46:59.357Z,395
2018-05-27T05:48:01.157Z,400
2018-05-27T05:49:02.896Z,400
2018-05-27T05:50:04.693Z,395
2018-05-27T05:51:06.441Z,390
2018-05-27T05:52:08.153Z,390
2018-05-27T05:53:09.914Z,405
2018-05-27T05:54:11.646Z,405
2018-05-27T05:55:13.384Z,395
2018-05-27T06:01:18.494Z,475
2018-05-27T06:02:20.190Z,490
2018-05-27T06:03:21.864Z,500
2018-05-27T06:04:23.529Z,500
2018-05-27T06:05:25.200Z,505
2018-05-27T06:06:26.873Z,510
2018-05-27T06:07:28.549Z,530
2018-05-27T06:08:30.216Z,525
2018-05-27T06:09:31.904Z,535
2018-05-27T06:10:33.566Z,485
2018-05-27T06:11:35.269Z,495
2018-05-27T06:12:36.981Z,465
2018-05-27T06:13:38.715Z,455
2018-05-27T06:14:40.322Z,450
2018-05-27T06:15:41.998Z,455
2018-05-27T06:16:43.662Z,480
2018-05-27T06:17:45.327Z,510
2018-05-27T06:18:47.025Z,560
2018-05-27T06:19:48.690Z,585
2018-05-27T06:20:50.360Z,635
2018-05-27T06:21:52.030Z,645
2018-05-27T06:22:53.743Z,710
2018-05-27T06:23:55.401Z,730
2018-05-27T06:24:57.075Z,745
2018-05-27T06:25:58.752Z,775
2018-05-27T06:27:00.427Z,805
2018-05-27T06:28:02.096Z,845
2018-05-27T06:29:03.776Z,880
2018-05-27T06:30:05.464Z,920
2018-05-27T06:31:07.135Z,940
2018-05-27T06:32:08.914Z,955
2018-05-27T06:33:10.463Z,945
2018-05-27T06:34:12.141Z,920
2018-05-27T06:35:13.812Z,875
2018-05-27T06:36:15.505Z,815
2018-05-27T06:37:17.179Z,780
2018-05-27T06:38:18.852Z,750
2018-05-27T06:39:20.515Z,745
2018-05-27T06:40:22.194Z,755
2018-05-27T06:41:23.861Z,775
2018-05-27T06:42:25.546Z,790
2018-05-27T06:43:27.222Z,800
2018-05-27T06:44:28.901Z,820
2018-05-27T06:45:30.562Z,815
2018-05-27T06:46:32.246Z,810
2018-05-27T06:47:33.944Z,800
2018-05-27T06:48:35.607Z,795
2018-05-27T06:49:37.290Z,765
2018-05-27T06:50:38.976Z,750
2018-05-27T06:51:40.647Z,730
2018-05-27T06:52:42.322Z,710
2018-05-27T06:53:44.007Z,700
2018-05-27T06:54:45.674Z,695
2018-05-27T06:55:47.350Z,685
2018-05-27T06:56:49.049Z,695
2018-05-27T06:57:50.736Z,715
2018-05-27T06:58:52.411Z,730
2018-05-27T06:59:54.106Z,800
2018-05-27T07:00:55.786Z,815
2018-05-27T07:01:57.487Z,850
2018-05-27T07:02:59.147Z,775
2018-05-27T07:04:00.855Z,785
2018-05-27T07:05:02.528Z,800
2018-05-27T07:06:04.392Z,885
2018-05-27T07:07:06.089Z,880
2018-05-27T07:08:07.821Z,905
2018-05-27T07:09:09.510Z,910
2018-05-27T07:10:11.195Z,870
2018-05-27T07:11:12.869Z,910
2018-05-27T07:12:14.560Z,880
2018-05-27T07:13:16.212Z,880
2018-05-27T07:14:17.889Z,915
2018-05-27T07:15:19.602Z,915
2018-05-27T07:16:21.272Z,880
2018-05-27T07:17:24.674Z,945
2018-05-27T07:18:26.369Z,915
2018-05-27T07:19:28.033Z,1120
2018-05-27T07:20:29.710Z,1215
2018-05-27T07:21:31.452Z,1380
2018-05-27T07:22:33.156Z,1975
2018-05-27T07:23:34.836Z,2090
2018-05-27T07:24:36.549Z,2075
2018-05-27T07:25:38.224Z,1790
2018-05-27T07:26:39.922Z,1310
2018-05-27T07:27:41.614Z,1645
2018-05-27T07:28:43.277Z,1270
2018-05-27T07:29:44.951Z,1095
2018-05-27T07:30:46.616Z,2040
2018-05-27T07:31:48.296Z,1150
2018-05-27T07:32:49.993Z,2030
2018-05-27T07:33:51.657Z,1770
2018-05-27T07:34:53.350Z,2010
2018-05-27T07:35:55.040Z,1835
2018-05-27T07:36:56.711Z,2210
2018-05-27T07:37:58.428Z,1990
2018-05-27T07:39:00.109Z,1475
2018-05-27T07:40:01.785Z,1485
2018-05-27T07:41:03.494Z,2085
2018-05-27T07:42:05.251Z,1965
2018-05-27T07:43:06.917Z,1690
2018-05-27T07:44:08.595Z,2075
2018-05-27T07:45:10.320Z,1960
2018-05-27T07:46:12.009Z,1945
2018-05-27T07:47:13.676Z,1940
2018-05-27T07:48:15.359Z,2070
2018-05-27T07:49:17.091Z,1975
2018-05-27T07:50:18.764Z,1950
2018-05-27T07:51:20.452Z,1805
2018-05-27T07:52:22.137Z,1975
2018-05-27T07:53:23.864Z,1835
2018-05-27T07:54:25.572Z,1805
2018-05-27T07:55:27.257Z,1815
2018-05-27T07:56:28.942Z,1685
2018-05-27T07:57:30.647Z,1580
2018-05-27T07:58:32.371Z,1685
2018-05-27T07:59:34.019Z,1565
2018-05-27T08:00:35.698Z,1690
2018-05-27T08:01:41.963Z,1620
2018-05-27T08:02:46.177Z,1585
2018-05-27T08:03:48.059Z,1500
2018-05-27T08:04:49.810Z,1365
2018-05-27T08:05:51.520Z,1625
2018-05-27T08:06:53.209Z,1335
2018-05-27T08:07:55.981Z,1445
2018-05-27T08:08:57.671Z,1320
2018-05-27T08:09:59.379Z,1325
2018-05-27T08:11:01.066Z,1430
2018-05-27T08:12:02.757Z,1495
2018-05-27T08:13:04.449Z,1420
2018-05-27T08:14:06.147Z,1365
2018-05-27T08:15:07.836Z,1265
2018-05-27T08:16:09.516Z,1405
2018-05-27T08:17:11.364Z,1610
2018-05-27T08:18:13.045Z,1525
2018-05-27T08:19:14.733Z,1625
2018-05-27T08:20:16.552Z,1585
2018-05-27T08:21:18.218Z,1760
2018-05-27T08:22:19.950Z,1835
2018-05-27T08:23:21.732Z,1605
2018-05-27T08:24:23.410Z,1705
2018-05-27T08:25:25.082Z,1505
2018-05-27T08:26:26.762Z,1440
2018-05-27T08:27:28.464Z,1240
2018-05-27T08:28:30.190Z,885
2018-05-27T08:29:31.902Z,905
2018-05-27T08:30:33.624Z,885
2018-05-27T08:31:35.345Z,845
2018-05-27T08:32:37.059Z,895
2018-05-27T08:33:38.802Z,925
2018-05-27T08:34:40.485Z,1130
2018-05-27T08:35:42.178Z,1155
2018-05-27T08:36:43.886Z,1400
2018-05-27T08:37:45.573Z,1595
2018-05-27T08:38:47.287Z,1585
2018-05-27T08:39:48.964Z,1600
2018-05-27T08:40:50.650Z,1925
2018-05-27T08:41:52.329Z,1540
2018-05-27T08:42:54.008Z,1505
2018-05-27T08:43:55.689Z,1535
2018-05-27T08:44:57.375Z,1775
2018-05-27T08:45:59.187Z,1505
2018-05-27T08:47:00.863Z,1415
2018-05-27T08:48:02.563Z,1585
2018-05-27T08:49:04.263Z,1515
2018-05-27T08:50:05.958Z,1460
2018-05-27T08:51:07.632Z,1520
2018-05-27T08:52:09.322Z,1480
2018-05-27T08:53:11.027Z,1560
2018-05-27T08:54:12.756Z,1350
2018-05-27T08:55:14.491Z,1295
2018-05-27T08:56:16.172Z,1225
2018-05-27T08:57:17.905Z,1180
2018-05-27T08:58:19.548Z,1185
2018-05-27T08:59:21.372Z,1140
2018-05-27T09:00:23.068Z,1180
2018-05-27T09:01:24.784Z,1410
2018-05-27T09:02:26.491Z,1220
2018-05-27T09:03:28.190Z,1560
2018-05-27T09:04:29.876Z,1560
2018-05-27T09:05:31.547Z,1790
2018-05-27T09:06:33.254Z,1740
2018-05-27T09:07:34.938Z,2000
2018-05-27T09:08:36.715Z,2020
2018-05-27T09:09:38.549Z,2370
2018-05-27T09:10:40.220Z,2360
2018-05-27T09:11:41.910Z,2405
2018-05-27T09:12:43.795Z,2390
2018-05-27T09:13:45.498Z,2495
2018-05-27T09:14:47.184Z,2470
2018-05-27T09:15:48.873Z,2375
2018-05-27T09:16:50.548Z,2355
2018-05-27T09:17:52.249Z,1930
2018-05-27T09:18:53.971Z,1875
2018-05-27T09:19:55.656Z,2150
2018-05-27T09:20:57.338Z,1935
2018-05-27T09:21:59.012Z,1660
2018-05-27T09:23:00.706Z,1705
2018-05-27T09:24:02.391Z,1745
2018-05-27T09:25:04.111Z,1935
2018-05-27T09:26:05.782Z,2080
2018-05-27T09:27:07.487Z,2045
2018-05-27T09:28:09.170Z,1920
2018-05-27T09:29:10.872Z,1935
2018-05-27T09:30:12.567Z,2090
2018-05-27T09:31:14.263Z,2090
2018-05-27T09:32:15.931Z,2040
2018-05-27T09:33:17.630Z,1920
2018-05-27T09:34:19.346Z,1805
2018-05-27T09:35:21.024Z,1730
2018-05-27T09:36:22.701Z,1875
2018-05-27T09:37:24.387Z,1845
2018-05-27T09:38:26.081Z,1815
2018-05-27T09:39:27.835Z,1985
2018-05-27T09:40:29.499Z,1980
2018-05-27T09:41:31.180Z,1950
2018-05-27T09:42:32.874Z,1975
2018-05-27T09:43:34.576Z,2265
2018-05-27T09:44:36.283Z,2155
2018-05-27T09:45:37.974Z,2210
2018-05-27T09:46:39.658Z,1785
2018-05-27T09:47:41.327Z,2095
2018-05-27T09:48:43.121Z,2020
2018-05-27T09:49:44.807Z,2210
2018-05-27T09:50:46.513Z,1180
2018-05-27T09:51:48.224Z,1195
2018-05-27T09:52:49.980Z,1310
2018-05-27T09:53:51.675Z,2910
2018-05-27T09:54:53.358Z,2450
2018-05-27T09:55:55.040Z,2595
2018-05-27T10:02:07.277Z,3755
2018-05-27T10:03:08.965Z,1990
2018-05-27T10:04:10.653Z,1845
2018-05-27T10:05:12.341Z,3770
2018-05-27T10:06:14.019Z,3280
2018-05-27T10:07:15.690Z,3485
2018-05-27T10:08:17.370Z,2835
2018-05-27T10:09:19.063Z,2035
2018-05-27T10:10:20.809Z,1835
2018-05-27T10:11:22.499Z,3735
2018-05-27T10:12:24.177Z,3920
2018-05-27T10:13:25.872Z,3730
2018-05-27T10:14:27.573Z,2030
2018-05-27T10:15:29.324Z,2555
2018-05-27T10:16:31.040Z,3320
2018-05-27T10:17:32.743Z,3465
2018-05-27T10:18:34.416Z,3385
2018-05-27T10:19:36.141Z,2820
2018-05-27T10:20:37.837Z,3255
2018-05-27T10:21:39.548Z,2025
2018-05-27T10:22:41.264Z,3790
2018-05-27T10:23:42.959Z,3220
2018-05-27T10:24:44.667Z,1315
2018-05-27T10:25:46.394Z,2850
2018-05-27T10:26:48.070Z,4065
2018-05-27T10:27:49.754Z,1710
2018-05-27T10:28:51.432Z,4365
2018-05-27T10:29:53.158Z,2290
2018-05-27T10:30:54.843Z,4210
2018-05-27T10:31:56.522Z,2200
2018-05-27T10:32:58.213Z,1570
2018-05-27T10:33:59.902Z,1690
2018-05-27T10:35:01.596Z,1485
2018-05-27T10:36:03.280Z,1395
2018-05-27T10:37:05.011Z,1525
2018-05-27T10:38:06.696Z,1715
2018-05-27T10:39:08.424Z,1740
2018-05-27T10:40:10.094Z,3180
2018-05-27T10:41:14.519Z,4460
2018-05-27T10:42:16.187Z,4470
2018-05-27T10:43:17.866Z,4350
2018-05-27T10:44:19.582Z,4365
2018-05-27T10:45:21.299Z,4295
2018-05-27T10:46:25.114Z,4315
2018-05-27T10:47:26.838Z,4335
2018-05-27T10:48:28.501Z,4315
2018-05-27T10:49:30.281Z,4245
2018-05-27T10:50:31.968Z,4245
2018-05-27T10:51:33.846Z,3405
2018-05-27T10:52:35.541Z,4160
2018-05-27T10:53:37.298Z,1875
2018-05-27T10:54:38.997Z,3520
2018-05-27T10:55:40.688Z,3980
2018-05-27T10:56:42.390Z,4020
2018-05-27T10:57:44.056Z,4070
2018-05-27T10:58:45.774Z,4155
2018-05-27T10:59:47.463Z,4020
2018-05-27T11:00:49.148Z,4030
2018-05-27T11:01:50.830Z,4010
2018-05-27T11:02:52.509Z,3990
2018-05-27T11:03:54.207Z,4030
2018-05-27T11:04:55.885Z,3900
2018-05-27T11:05:57.613Z,4050
2018-05-27T11:06:59.328Z,4005
2018-05-27T11:08:01.024Z,3985
2018-05-27T11:09:02.717Z,3975
2018-05-27T11:10:04.420Z,3930
2018-05-27T11:11:06.119Z,3800
2018-05-27T11:12:07.854Z,4100
2018-05-27T11:13:09.559Z,3860
2018-05-27T11:14:11.252Z,4325
2018-05-27T11:15:12.949Z,2250
2018-05-27T11:16:14.632Z,3245
2018-05-27T11:17:16.324Z,4195
2018-05-27T11:18:18.017Z,4180
2018-05-27T11:19:19.724Z,3015
2018-05-27T11:20:21.414Z,3595
2018-05-27T11:21:23.111Z,3655
2018-05-27T11:22:24.797Z,3930
2018-05-27T11:23:26.533Z,3970
2018-05-27T11:24:28.226Z,3930
2018-05-27T11:25:29.930Z,3915
2018-05-27T11:26:31.602Z,4025
2018-05-27T11:27:33.342Z,4010
2018-05-27T11:28:35.035Z,3985
2018-05-27T11:29:36.752Z,3970
2018-05-27T11:30:38.477Z,3870
2018-05-27T11:31:40.174Z,3885
2018-05-27T11:32:41.873Z,3845
2018-05-27T11:33:43.549Z,3865
2018-05-27T11:34:45.309Z,3895
2018-05-27T11:35:46.993Z,3880
2018-05-27T11:36:48.695Z,3900
2018-05-27T11:37:50.361Z,3985
2018-05-27T11:38:52.068Z,4075
2018-05-27T11:39:53.973Z,4325
2018-05-27T11:40:55.667Z,4315
2018-05-27T11:41:57.359Z,4325
2018-05-27T11:42:59.057Z,4225
2018-05-27T11:44:00.740Z,4140
2018-05-27T11:45:02.427Z,4460
2018-05-27T11:46:04.120Z,4425
2018-05-27T11:47:05.820Z,4115
2018-05-27T11:48:07.510Z,4025
2018-05-27T11:49:09.233Z,4035
2018-05-27T11:50:10.925Z,3975
2018-05-27T11:51:12.605Z,3960
2018-05-27T11:52:14.297Z,3915
2018-05-27T11:53:15.968Z,3970
2018-05-27T11:54:17.716Z,3950
2018-05-27T11:55:19.298Z,3940
2018-05-27T11:56:20.992Z,3860
2018-05-27T11:57:22.676Z,3900
2018-05-27T11:58:24.376Z,3875
2018-05-27T11:59:26.064Z,3915
2018-05-27T12:00:27.776Z,3920
2018-05-27T12:01:29.466Z,2105
2018-05-27T12:02:31.146Z,1520
2018-05-27T12:03:32.850Z,1335
2018-05-27T12:04:34.566Z,1225
2018-05-27T12:05:36.277Z,2445
2018-05-27T12:06:38.007Z,3555
2018-05-27T12:07:39.714Z,3755
2018-05-27T12:08:41.396Z,3685
2018-05-27T12:09:43.245Z,3545
2018-05-27T12:10:44.790Z,3420
2018-05-27T12:11:46.516Z,3295
2018-05-27T12:12:48.225Z,3295
2018-05-27T12:13:49.979Z,3465
2018-05-27T12:14:51.678Z,3385
2018-05-27T12:15:53.395Z,3295
2018-05-27T12:16:55.332Z,3290
2018-05-27T12:17:57.124Z,3230
2018-05-27T12:18:59.033Z,3125
2018-05-27T12:20:00.722Z,3035
2018-05-27T12:21:02.409Z,3075
2018-05-27T12:22:04.492Z,3035
2018-05-27T12:23:06.192Z,2950
2018-05-27T12:24:07.953Z,2730
2018-05-27T12:25:09.706Z,2815
2018-05-27T12:26:11.493Z,2900
2018-05-27T12:27:13.190Z,2850
2018-05-27T12:28:15.031Z,2925
2018-05-27T12:29:16.714Z,2380
2018-05-27T12:30:18.573Z,1380
2018-05-27T12:31:20.319Z,1320
2018-05-27T12:32:22.225Z,1525
2018-05-27T12:33:23.961Z,1890
2018-05-27T12:34:25.866Z,1725
2018-05-27T12:35:27.639Z,1305
2018-05-27T12:36:29.382Z,1875
2018-05-27T12:37:31.150Z,1495
2018-05-27T12:38:32.885Z,1420
2018-05-27T12:39:34.598Z,1405
2018-05-27T12:40:36.311Z,985
2018-05-27T12:41:38.055Z,880
2018-05-27T12:42:39.909Z,825
2018-05-27T12:43:41.786Z,760
2018-05-27T12:44:43.630Z,735
2018-05-27T12:45:45.584Z,755
2018-05-27T12:46:47.483Z,780
2018-05-27T12:47:49.308Z,795
2018-05-27T12:48:51.081Z,795
2018-05-27T12:49:52.856Z,785
2018-05-27T12:50:54.688Z,765
2018-05-27T12:51:56.724Z,725
2018-05-27T12:52:58.420Z,680
2018-05-27T12:54:00.263Z,645
2018-05-27T12:55:02.100Z,590
2018-05-27T12:56:03.955Z,550
2018-05-27T12:57:05.753Z,520
2018-05-27T12:58:07.525Z,490
2018-05-27T12:59:09.316Z,465
2018-05-27T13:00:11.153Z,450
2018-05-27T13:01:13.013Z,425
2018-05-27T13:02:14.817Z,400
2018-05-27T13:03:16.585Z,375
2018-05-27T13:04:18.375Z,360
2018-05-27T13:05:20.224Z,335
2018-05-27T13:06:22.074Z,315
2018-05-27T13:07:23.960Z,290
2018-05-27T13:08:25.785Z,275
2018-05-27T13:09:27.631Z,250
2018-05-27T13:10:29.458Z,225
2018-05-27T13:11:31.296Z,210
2018-05-27T13:12:33.128Z,190
2018-05-27T13:13:34.936Z,185
2018-05-27T13:14:36.800Z,170
2018-05-27T13:15:38.598Z,160
2018-05-27T13:16:40.419Z,150
2018-05-27T13:17:42.088Z,140
2018-05-27T13:18:43.798Z,135
2018-05-27T13:19:45.512Z,130
2018-05-27T13:20:47.244Z,130
2018-05-27T13:21:48.941Z,125
2018-05-27T13:22:50.647Z,125
2018-05-27T13:23:52.324Z,125
2018-05-27T13:24:54.010Z,125
2018-05-27T13:25:55.689Z,130
2018-05-27T13:26:57.368Z,135
2018-05-27T13:27:59.275Z,135
2018-05-27T13:29:00.946Z,135
2018-05-27T13:30:02.622Z,135
2018-05-27T13:31:04.305Z,135
2018-05-27T13:32:05.965Z,135
2018-05-27T13:33:07.668Z,135
2018-05-27T13:34:09.333Z,130
2018-05-27T13:35:11.005Z,135
2018-05-27T13:36:12.701Z,135
2018-05-27T13:37:14.363Z,140
2018-05-27T13:38:16.120Z,145
2018-05-27T13:39:17.807Z,150
2018-05-27T13:40:19.457Z,160
2018-05-27T13:41:21.127Z,170
2018-05-27T13:42:22.793Z,175
2018-05-27T13:43:24.479Z,180
2018-05-27T13:44:26.133Z,185
2018-05-27T13:45:27.789Z,190
2018-05-27T13:46:29.468Z,200
2018-05-27T13:47:31.129Z,205
2018-05-27T13:48:32.813Z,215
2018-05-27T13:49:34.487Z,225
2018-05-27T13:50:36.247Z,240
2018-05-27T13:51:38.226Z,255
2018-05-27T13:52:39.940Z,270
2018-05-27T13:53:41.655Z,290
2018-05-27T13:54:43.322Z,320
2018-05-27T13:55:45.008Z,350
2018-05-27T14:01:34.336Z,645
2018-05-27T14:02:35.998Z,700
2018-05-27T14:03:37.667Z,780
2018-05-27T14:04:39.385Z,865
2018-05-27T14:05:41.051Z,955
2018-05-27T14:06:42.725Z,1055
2018-05-27T14:07:44.413Z,1160
2018-05-27T14:08:46.073Z,1210
2018-05-27T14:09:47.738Z,1310
2018-05-27T14:10:49.412Z,1390
2018-05-27T14:11:51.083Z,1400
2018-05-27T14:12:52.749Z,1390
2018-05-27T14:13:54.440Z,1530
2018-05-27T14:14:56.116Z,1535
2018-05-27T14:15:57.777Z,1510
2018-05-27T14:16:59.451Z,1560
2018-05-27T14:18:01.180Z,1505
2018-05-27T14:19:02.850Z,1490
2018-05-27T14:20:04.524Z,1525
2018-05-27T14:21:06.205Z,1530
2018-05-27T14:22:07.885Z,1505
2018-05-27T14:23:09.557Z,1625
2018-05-27T14:24:11.296Z,1780
2018-05-27T14:25:12.972Z,1810
2018-05-27T14:26:14.601Z,1825
2018-05-27T14:27:16.378Z,1855
2018-05-27T14:28:18.140Z,1845
2018-05-27T14:29:19.809Z,1810
2018-05-27T14:30:21.491Z,1710
2018-05-27T14:31:23.215Z,1660
2018-05-27T14:32:25.801Z,1715
2018-05-27T14:33:28.185Z,1800